Fort Myers, Florida
Current Conditions -  °F | °C
As of 10:53 AM on Friday 24 Oct 2014 (Local Time) from KFMY Reporting Station
Broken Clouds Broken Clouds  
Wind Chill: 26°   Ceiling: 5500
Heat Index: 26°   Visibility: 10mi
Dew Point: 17°   Wind: 14mph
Humidity: 58%   Direction: 50°NE
Pressure: 29.94"   Gusts: NA
Location:  26.64°N, 81.87°W
Report Text: KFMY 241453Z 05012KT 10SM BKN055 26/17 A2994 RMK AO2 SLP140 T02560167 51011
Loading
Personal Weather Stations






























Interactive Weather Map
Tropical Storm Tracking
New forecast layout! Learn more

10-Day Weather Forecast

Advertisements
Track Severe Weather on mobile